Latest Weather Observations for Point Stuart

IDD60901

Issued at 1:31 pm CST Monday 27 April 2015 (issued every 10 minutes, with the page automatically refreshed every 10 minutes)

About weather observations | Map of Darwin area stations | Latest observations for Darwin area | Other Formats
Station Details ID: 014254 Name: POINT STUART Lat: -12.24 Lon: 131.88 Height: 1.0 m
Data from the previous 72 hours. | See also: Recent months for locations in Northern Territory
Date/Time
CST
Tmp

°C
App
Tmp
°C
Dew
Point
°C
Rel
Hum
%
Delta-T

°C
Wind Press
QNH
hPa
Press
MSL
hPa
Rain
since
9 am
mm
Dir
 
Spd
km/h
Gust
km/h
Spd
kts
Gust
kts
27/01:30pm 29.8 29.2 16.6 45 8.3 E 15 24 8 13 1011.3 - 0.0
27/01:00pm 29.6 28.7 16.8 46 8.0 E 17 26 9 14 1011.7 - 0.0
27/12:30pm 28.9 27.8 17.7 50 7.1 E 20 30 11 16 1012.1 - 0.0
27/12:00pm 28.9 26.8 16.1 46 7.9 ESE 22 32 12 17 1012.4 1012.4 0.0
27/11:30am 27.8 25.5 16.7 50 6.9 ESE 24 32 13 17 1012.9 - 0.0
27/11:00am 27.0 25.9 17.2 55 6.1 SSE 19 26 10 14 1013.0 - 0.0
27/10:30am 25.8 25.2 16.6 56 5.7 SSE 15 22 8 12 1013.5 - 0.0
27/10:00am 24.8 23.5 15.7 57 5.5 SE 17 26 9 14 1013.8 - 0.0
27/09:30am 23.2 20.8 13.9 56 5.4 SE 19 22 10 12 1013.9 - 0.0
27/09:00am 21.7 20.1 13.9 61 4.5 N 15 20 8 11 1013.9 1013.9 0.0
27/08:30am 21.1 19.2 13.0 60 4.6 ESE 15 20 8 11 1013.9 - 0.0
27/08:00am 20.7 19.5 12.7 60 4.5 ENE 11 17 6 9 1013.6 - 0.0
27/07:30am 20.5 18.6 13.0 62 4.3 SE 15 20 8 11 1013.2 - 0.0
27/07:00am 20.1 18.5 12.8 63 4.1 SE 13 19 7 10 1012.6 - 0.0
27/06:30am 20.3 18.2 12.3 60 4.5 E 15 19 8 10 1012.2 - 0.0
27/06:00am 20.8 18.6 12.2 58 4.8 NE 15 20 8 11 1012.0 1012.0 0.0
27/05:30am 20.9 18.5 12.8 60 4.6 ENE 17 20 9 11 1011.7 - 0.0
27/05:00am 20.6 19.0 13.8 65 3.9 ENE 15 19 8 10 1011.8 - 0.0
27/04:30am 20.2 19.1 14.3 69 3.4 ENE 13 15 7 8 1011.8 - 0.0
27/04:00am 20.2 18.5 13.6 66 3.8 NE 15 17 8 9 1011.7 - 0.0
27/03:30am 20.3 19.0 13.7 66 3.8 NE 13 17 7 9 1011.8 - 0.0
27/03:00am 20.5 19.3 13.9 66 3.8 ESE 13 17 7 9 1011.9 1011.9 0.0
27/02:30am 21.3 19.6 13.7 62 4.4 ENE 15 20 8 11 1012.0 - 0.0
27/02:00am 21.5 19.7 13.4 60 4.7 E 15 17 8 9 1012.2 - 0.0
27/01:30am 21.7 19.8 13.1 58 4.9 ENE 15 19 8 10 1012.4 - 0.0
27/01:00am 22.4 20.7 13.7 58 5.0 E 15 19 8 10 1012.5 - 0.0
27/12:30am 22.3 21.4 14.9 63 4.4 SSE 13 15 7 8 1012.9 - 0.0
27/12:00am 22.4 21.8 15.7 66 4.0 SSE 13 15 7 8 1013.0 1013.0 0.0
 
Date/Time
CST
Tmp

°C
App
Tmp
°C
Dew
Point
°C
Rel
Hum
%
Delta-T

°C
Wind Press
QNH
hPa
Press
MSL
hPa
Rain
since
9 am
mm
Dir
 
Spd
km/h
Gust
km/h
Spd
kts
Gust
kts
26/11:30pm 22.4 21.8 15.7 66 4.0 SE 13 17 7 9 1013.2 - 0.0
26/11:00pm 22.6 22.4 16.6 69 3.7 SE 13 15 7 8 1013.4 - 0.0
26/10:30pm 23.0 22.8 17.5 71 3.4 ESE 15 17 8 9 1013.4 - 0.0
26/10:00pm 23.1 24.3 19.1 78 2.5 SE 11 13 6 7 1013.5 - 0.0
26/09:30pm 23.5 25.1 19.2 77 2.7 SE 9 11 5 6 1013.4 - 0.0
26/09:00pm 23.7 25.2 19.8 79 2.5 SE 11 15 6 8 1013.1 1013.1 0.0
26/08:30pm 24.2 27.1 20.7 81 2.3 SSE 6 7 3 4 1012.7 - 0.0
26/08:00pm 24.3 25.9 18.2 68 3.8 ESE 7 7 4 4 1012.3 - 0.0
26/07:30pm 24.8 27.1 19.8 74 3.2 SSE 7 7 4 4 1011.9 - 0.0
26/07:00pm 26.0 29.8 20.1 70 3.8 CALM 0 0 0 0 1011.5 - 0.0
26/06:30pm 27.4 30.3 18.1 57 5.9 CALM 0 0 0 0 1011.1 - 0.0
26/06:00pm 28.3 30.8 18.1 54 6.5 SE 2 7 1 4 1010.7 1010.7 0.0
26/05:30pm 29.6 30.7 18.1 50 7.4 ESE 9 13 5 7 1010.5 - 0.0
26/05:00pm 30.3 30.5 16.7 44 8.5 ESE 11 15 6 8 1010.2 - 0.0
26/04:30pm 30.6 30.6 16.2 41 9.0 ESE 11 19 6 10 1010.1 - 0.0
26/04:00pm 30.9 29.4 15.3 38 9.6 E 17 24 9 13 1010.1 - 0.0
26/03:30pm 31.3 29.9 16.5 41 9.3 E 19 26 10 14 1010.3 - 0.0
26/03:00pm 31.1 29.6 16.7 42 9.1 E 20 28 11 15 1010.5 1010.5 0.0
26/02:30pm 31.2 29.9 16.8 42 9.1 E 19 26 10 14 1010.8 - 0.0
26/02:00pm 30.7 29.2 16.3 42 9.0 ESE 19 28 10 15 1011.0 - 0.0
26/01:30pm 30.5 28.1 15.4 40 9.3 ESE 22 33 12 18 1011.1 - 0.0
26/10:30am 27.5 25.6 17.7 55 6.2 SE 24 33 13 18 1013.3 - 0.0
26/10:00am 26.6 25.9 18.7 62 5.0 E 20 26 11 14 1013.4 - 0.0
26/09:30am 25.4 24.1 17.3 61 5.0 SE 20 30 11 16 1013.4 - 0.0
26/09:00am 24.9 24.2 17.4 63 4.7 SE 17 22 9 12 1013.0 1013.0 0.0
26/08:30am 24.0 23.8 18.4 71 3.5 SE 17 24 9 13 1012.9 - 0.0
26/08:00am 23.0 23.9 20.1 84 1.9 SE 15 20 8 11 1012.6 - 0.0
26/07:30am 22.3 23.8 21.3 94 0.7 ESE 15 19 8 10 1012.3 - 0.0
26/07:00am 21.5 23.6 21.0 97 0.3 ESE 11 13 6 7 1011.6 - 0.0
26/06:30am 21.4 23.4 20.7 96 0.5 ESE 11 13 6 7 1011.4 - 0.0
26/06:00am 22.1 24.1 20.7 92 0.9 ESE 11 15 6 8 1011.1 1011.1 0.0
26/05:30am 22.5 24.2 20.2 87 1.5 ESE 11 13 6 7 1011.1 - 0.0
26/05:00am 23.0 26.4 22.7 98 0.2 ESE 9 11 5 6 1011.0 - 0.0
26/04:30am 23.1 28.4 23.1 100 0.0 CALM 0 9 0 5 1011.1 - 0.0
26/04:00am 22.9 28.1 22.9 100 0.0 CALM 0 0 0 0 1011.0 - 0.0
26/03:30am 22.8 27.2 22.8 100 0.0 E 4 6 2 3 1010.9 - 0.0
26/03:00am 22.6 26.3 22.6 100 0.0 E 7 7 4 4 1010.9 1010.9 0.0
26/02:30am 22.4 26.0 22.4 100 0.0 E 7 7 4 4 1010.9 - 0.0
26/02:00am 23.1 27.3 23.1 100 0.0 SE 6 6 3 3 1011.0 - 0.0
26/01:30am 23.3 27.6 23.3 100 0.0 SSE 6 9 3 5 1011.2 - 0.0
26/01:00am 23.6 27.9 23.6 100 0.0 S 7 9 4 5 1011.5 - 0.0
26/12:30am 23.3 27.4 23.3 100 0.0 S 7 9 4 5 1011.5 - 0.0
26/12:00am 23.8 29.4 23.6 99 0.1 CALM 0 0 0 0 1011.5 1011.5 0.0
 
Date/Time
CST
Tmp

°C
App
Tmp
°C
Dew
Point
°C
Rel
Hum
%
Delta-T

°C
Wind Press
QNH
hPa
Press
MSL
hPa
Rain
since
9 am
mm
Dir
 
Spd
km/h
Gust
km/h
Spd
kts
Gust
kts
25/11:30pm 23.7 27.9 23.2 97 0.3 N 6 7 3 4 1011.6 - 0.0
25/11:00pm 24.3 29.0 24.0 98 0.2 SSE 6 9 3 5 1011.7 - 0.0
25/10:30pm 23.9 27.8 22.9 94 0.7 N 7 9 4 5 1011.7 - 0.0
25/10:00pm 25.2 29.9 24.9 98 0.2 S 9 11 5 6 1011.5 - 0.0
25/09:30pm 25.3 29.9 25.3 100 0.0 S 11 13 6 7 1011.4 - 0.0
25/09:00pm 25.3 30.6 25.3 100 0.0 S 7 11 4 6 1011.0 1011.0 0.0
25/08:30pm 25.5 31.8 24.8 96 0.5 CALM 0 0 0 0 1010.7 - 0.0
25/08:00pm 25.6 31.8 24.6 94 0.7 CALM 0 0 0 0 1010.2 - 0.0
25/07:30pm 25.8 30.2 23.5 87 1.6 WSW 6 6 3 3 1009.7 - 0.0
25/07:00pm 25.9 29.7 21.6 77 2.9 W 4 6 2 3 1009.4 - 0.0
25/06:30pm 27.7 30.2 20.3 64 4.9 N 7 9 4 5 1009.1 - 0.0
25/06:00pm 29.3 32.0 20.2 58 6.0 N 6 9 3 5 1009.0 1009.0 0.0
25/05:30pm 30.3 33.1 20.8 56 6.3 N 7 13 4 7 1008.7 - 0.0
25/05:00pm 30.8 33.0 20.4 54 6.9 N 9 15 5 8 1008.4 - 0.0
25/04:30pm 30.9 32.9 20.8 55 6.7 N 11 17 6 9 1008.4 - 0.0
25/04:00pm 31.4 33.7 21.3 55 6.8 NNE 11 15 6 8 1008.2 - 0.0
25/03:30pm 31.3 33.7 20.9 54 6.9 N 9 17 5 9 1008.2 - 0.0
25/03:00pm 31.5 33.4 21.4 55 6.8 N 13 20 7 11 1008.4 1008.4 0.0
25/02:30pm 31.5 33.1 21.4 55 6.8 NNE 15 20 8 11 1008.8 - 0.0
25/02:00pm 32.0 34.5 22.4 57 6.6 NNE 13 20 7 11 1008.9 - 0.0
25/01:30pm 31.9 33.2 20.8 51 7.4 NNE 15 24 8 13 1009.2 - 0.0
25/01:00pm 31.2 32.3 20.5 53 7.1 NNE 15 24 8 13 1009.6 - 0.0
25/12:30pm 31.0 32.3 20.9 55 6.7 NNE 15 22 8 12 1010.1 - 0.0
25/12:00pm 31.2 32.1 20.8 54 6.9 NE 17 22 9 12 1010.2 1010.2 0.0
25/11:30am 30.1 30.7 19.5 53 6.9 N 15 20 8 11 1010.6 - 0.0
25/11:00am 30.4 31.8 20.3 54 6.7 ENE 13 20 7 11 1011.2 - 0.0
25/10:30am 30.1 31.3 20.6 56 6.3 NE 15 20 8 11 1011.2 - 0.0
25/10:00am 29.7 31.1 21.9 63 5.3 E 17 20 9 11 1011.2 - 0.0
25/09:30am 29.1 30.1 21.8 64 4.9 E 19 22 10 12 1011.0 - 0.0
25/09:00am 29.1 30.7 22.1 66 4.7 ENE 17 22 9 12 1010.8 1010.8 0.0
25/08:30am 28.5 30.6 22.5 70 4.1 NNE 15 20 8 11 1010.7 - 0.0
25/08:00am 27.8 32.0 24.8 84 2.1 N 11 13 6 7 1010.6 - 0.0
25/07:30am 26.3 31.6 25.8 97 0.4 NE 9 13 5 7 1010.4 - 0.0
25/07:00am 25.0 29.7 25.0 100 0.0 E 9 11 5 6 1009.9 - 0.0
25/06:30am 24.6 29.1 24.6 100 0.0 E 9 11 5 6 1009.6 - 0.0
25/06:00am 24.5 28.9 24.5 100 0.0 ESE 9 11 5 6 1009.5 1009.5 0.0
25/05:30am 24.6 29.5 24.6 100 0.0 E 7 9 4 5 1009.5 - 0.0
25/05:00am 24.6 30.1 24.6 100 0.0 ESE 4 9 2 5 1009.6 - 0.0
25/04:30am 24.9 31.3 24.9 100 0.0 CALM 0 0 0 0 1009.6 - 0.0
25/04:00am 25.1 31.6 25.1 100 0.0 CALM 0 0 0 0 1009.6 - 0.0
25/03:30am 25.0 31.5 25.0 100 0.0 CALM 0 0 0 0 1009.6 - 0.0
25/03:00am 25.1 30.9 25.1 100 0.0 ESE 4 7 2 4 1009.8 1009.8 0.0
25/02:30am 25.5 32.3 25.5 100 0.0 CALM 0 0 0 0 1009.5 - 0.0
25/02:00am 25.9 32.2 25.9 100 0.0 SSE 4 7 2 4 1009.7 - 0.0
25/01:30am 25.8 31.6 25.8 100 0.0 SSE 6 7 3 4 1010.1 - 0.0
25/01:00am 26.2 32.1 26.2 100 0.0 SSE 7 7 4 4 1010.3 - 0.0
25/12:30am 26.2 32.3 26.2 100 0.0 S 6 6 3 3 1010.5 - 0.0
25/12:00am 26.3 32.5 26.3 100 0.0 S 6 9 3 5 1010.7 1010.7 0.0
 
Date/Time
CST
Tmp

°C
App
Tmp
°C
Dew
Point
°C
Rel
Hum
%
Delta-T

°C
Wind Press
QNH
hPa
Press
MSL
hPa
Rain
since
9 am
mm
Dir
 
Spd
km/h
Gust
km/h
Spd
kts
Gust
kts
24/11:30pm 26.0 31.8 26.0 100 0.0 S 7 9 4 5 1010.8 - 0.0
24/11:00pm 25.9 32.2 25.9 100 0.0 N 4 6 2 3 1010.5 - 0.0
24/10:30pm 26.0 33.1 26.0 100 0.0 CALM 0 0 0 0 1010.5 - 0.0
24/10:00pm 25.7 31.1 25.2 97 0.3 NNW 6 7 3 4 1010.6 - 0.0
24/09:30pm 26.2 32.8 25.2 94 0.7 CALM 0 0 0 0 1010.3 - 0.0
24/09:00pm 26.2 31.7 24.6 91 1.1 WNW 4 6 2 3 1010.1 1010.1 0.0
24/08:30pm 26.2 31.3 24.6 91 1.1 NW 6 7 3 4 1009.9 - 0.0
24/08:00pm 26.0 30.6 24.2 90 1.2 NW 7 9 4 5 1009.5 - 0.0
24/07:30pm 26.6 31.3 23.9 85 1.9 NNW 6 7 3 4 1009.0 - 0.0
24/07:00pm 27.0 31.3 23.3 80 2.5 NNW 6 7 3 4 1008.6 - 0.0
24/06:30pm 28.1 32.2 23.2 74 3.3 NNW 7 9 4 5 1008.3 - 0.0
24/06:00pm 29.2 33.0 23.4 71 4.0 NNW 9 13 5 7 1008.3 1008.3 0.0
24/05:30pm 29.8 33.5 23.3 68 4.5 NNW 9 13 5 7 1008.0 - 0.0
24/05:00pm 29.7 33.4 23.2 68 4.5 NNW 9 15 5 8 1007.7 - 0.0
24/04:30pm 30.9 34.0 22.8 62 5.5 N 11 17 6 9 1007.4 - 0.0
24/04:00pm 31.5 35.3 24.1 65 5.2 N 11 19 6 10 1007.4 - 0.0
24/03:30pm 31.5 34.9 23.3 61 5.7 N 11 19 6 10 1007.5 - 0.0
24/03:00pm 31.5 35.2 23.3 61 5.7 NNE 9 17 5 9 1007.8 1007.8 0.0
24/02:30pm 31.8 35.3 23.6 62 5.7 N 11 17 6 9 1008.0 - 0.0
24/02:00pm 31.3 33.9 22.6 60 5.9 NNE 13 19 7 10 1008.3 - 0.0

Latest Capital City Observations: Canberra | Sydney | Melbourne | Brisbane | Adelaide | Perth | Hobart | Darwin

Other Formats:

Comma delimited format used in spreadsheet applications
http://www.bom.gov.au/fwo/IDD60901/IDD60901.94127.axf

JavaScript Object Notation format (JSON) in row-major order
http://www.bom.gov.au/fwo/IDD60901/IDD60901.94127.json